sensor_id;sensor_type;location;lat;lon;timestamp;temperature;humidity
46766;DHT22;32527;51.986;5.842;2023-02-28T00:00:20;0.40;99.90
46766;DHT22;32527;51.986;5.842;2023-02-28T00:05:15;1.00;99.90
46766;DHT22;32527;51.986;5.842;2023-02-28T00:10:10;1.00;99.90
46766;DHT22;32527;51.986;5.842;2023-02-28T00:12:37;1.10;99.90
46766;DHT22;32527;51.986;5.842;2023-02-28T00:15:06;1.00;99.90
46766;DHT22;32527;51.986;5.842;2023-02-28T00:22:46;1.20;99.90
46766;DHT22;32527;51.986;5.842;2023-02-28T00:25:14;1.40;99.90
46766;DHT22;32527;51.986;5.842;2023-02-28T00:30:09;1.50;99.90
46766;DHT22;32527;51.986;5.842;2023-02-28T00:35:03;1.60;99.90
46766;DHT22;32527;51.986;5.842;2023-02-28T00:47:14;1.70;99.90
46766;DHT22;32527;51.986;5.842;2023-02-28T01:06:46;2.10;99.90
46766;DHT22;32527;51.986;5.842;2023-02-28T01:09:12;1.80;99.90
46766;DHT22;32527;51.986;5.842;2023-02-28T01:26:19;1.80;99.90
46766;DHT22;32527;51.986;5.842;2023-02-28T01:36:06;1.70;99.90
46766;DHT22;32527;51.986;5.842;2023-02-28T01:38:33;1.80;99.90
46766;DHT22;32527;51.986;5.842;2023-02-28T01:43:31;1.80;99.90
46766;DHT22;32527;51.986;5.842;2023-02-28T01:48:32;1.80;99.90
46766;DHT22;32527;51.986;5.842;2023-02-28T01:51:04;1.80;99.90
46766;DHT22;32527;51.986;5.842;2023-02-28T01:53:35;1.80;99.90
46766;DHT22;32527;51.986;5.842;2023-02-28T01:56:03;1.80;99.90
46766;DHT22;32527;51.986;5.842;2023-02-28T01:58:30;1.80;99.90
46766;DHT22;32527;51.986;5.842;2023-02-28T02:03:23;1.80;99.90
46766;DHT22;32527;51.986;5.842;2023-02-28T02:08:19;1.80;99.90
46766;DHT22;32527;51.986;5.842;2023-02-28T02:10:57;2.00;99.90
46766;DHT22;32527;51.986;5.842;2023-02-28T02:16:59;1.70;99.90
46766;DHT22;32527;51.986;5.842;2023-02-28T02:22:20;1.60;99.90
46766;DHT22;32527;51.986;5.842;2023-02-28T02:25:18;1.80;99.90
46766;DHT22;32527;51.986;5.842;2023-02-28T02:28:13;1.80;99.90
46766;DHT22;32527;51.986;5.842;2023-02-28T02:36:45;1.80;99.90
46766;DHT22;32527;51.986;5.842;2023-02-28T02:39:19;4.50;99.90
46766;DHT22;32527;51.986;5.842;2023-02-28T02:41:53;1.90;99.90
46766;DHT22;32527;51.986;5.842;2023-02-28T02:44:26;1.90;99.90
46766;DHT22;32527;51.986;5.842;2023-02-28T02:47:12;2.00;99.90
46766;DHT22;32527;51.986;5.842;2023-02-28T02:49:43;2.30;99.90
46766;DHT22;32527;51.986;5.842;2023-02-28T02:52:14;2.10;99.90
46766;DHT22;32527;51.986;5.842;2023-02-28T02:54:45;2.10;99.90
46766;DHT22;32527;51.986;5.842;2023-02-28T02:57:37;2.10;99.90
46766;DHT22;32527;51.986;5.842;2023-02-28T03:00:03;2.10;99.90
46766;DHT22;32527;51.986;5.842;2023-02-28T03:02:30;2.20;99.90
46766;DHT22;32527;51.986;5.842;2023-02-28T03:05:03;2.10;99.90
46766;DHT22;32527;51.986;5.842;2023-02-28T03:07:30;2.20;99.90
46766;DHT22;32527;51.986;5.842;2023-02-28T03:09:57;2.20;99.90
46766;DHT22;32527;51.986;5.842;2023-02-28T03:12:49;2.20;99.90
46766;DHT22;32527;51.986;5.842;2023-02-28T03:15:24;2.20;99.90
46766;DHT22;32527;51.986;5.842;2023-02-28T03:23:21;4.50;99.90
46766;DHT22;32527;51.986;5.842;2023-02-28T03:26:02;2.30;99.90
46766;DHT22;32527;51.986;5.842;2023-02-28T03:28:43;2.30;99.90
46766;DHT22;32527;51.986;5.842;2023-02-28T03:31:38;2.30;99.90
46766;DHT22;32527;51.986;5.842;2023-02-28T03:36:39;2.20;99.90
46766;DHT22;32527;51.986;5.842;2023-02-28T03:39:24;2.30;99.90
46766;DHT22;32527;51.986;5.842;2023-02-28T03:41:59;2.20;99.90
46766;DHT22;32527;51.986;5.842;2023-02-28T03:47:22;2.90;99.90
46766;DHT22;32527;51.986;5.842;2023-02-28T03:50:16;2.30;99.90
46766;DHT22;32527;51.986;5.842;2023-02-28T03:52:48;2.30;99.90
46766;DHT22;32527;51.986;5.842;2023-02-28T03:55:16;2.60;99.90
46766;DHT22;32527;51.986;5.842;2023-02-28T03:57:58;2.30;99.90
46766;DHT22;32527;51.986;5.842;2023-02-28T04:00:42;2.20;99.90
46766;DHT22;32527;51.986;5.842;2023-02-28T04:03:10;2.20;99.90
46766;DHT22;32527;51.986;5.842;2023-02-28T04:05:55;2.20;99.90
46766;DHT22;32527;51.986;5.842;2023-02-28T04:08:22;2.70;99.90
46766;DHT22;32527;51.986;5.842;2023-02-28T04:13:51;2.60;99.90
46766;DHT22;32527;51.986;5.842;2023-02-28T04:16:17;2.00;99.90
46766;DHT22;32527;51.986;5.842;2023-02-28T04:18:43;2.00;99.90
46766;DHT22;32527;51.986;5.842;2023-02-28T04:21:09;2.00;99.90
46766;DHT22;32527;51.986;5.842;2023-02-28T04:23:35;3.50;99.90
46766;DHT22;32527;51.986;5.842;2023-02-28T04:26:01;2.00;99.90
46766;DHT22;32527;51.986;5.842;2023-02-28T04:28:27;2.00;99.90
46766;DHT22;32527;51.986;5.842;2023-02-28T04:31:01;1.90;99.90
46766;DHT22;32527;51.986;5.842;2023-02-28T04:33:28;1.90;99.90
46766;DHT22;32527;51.986;5.842;2023-02-28T04:36:01;1.60;99.90
46766;DHT22;32527;51.986;5.842;2023-02-28T04:38:29;1.80;99.90
46766;DHT22;32527;51.986;5.842;2023-02-28T04:40:57;1.80;99.90
46766;DHT22;32527;51.986;5.842;2023-02-28T04:43:23;1.80;99.90
46766;DHT22;32527;51.986;5.842;2023-02-28T04:45:48;1.80;99.90
46766;DHT22;32527;51.986;5.842;2023-02-28T04:48:14;1.80;99.90
46766;DHT22;32527;51.986;5.842;2023-02-28T04:50:40;1.70;99.90
46766;DHT22;32527;51.986;5.842;2023-02-28T04:53:06;1.70;99.90
46766;DHT22;32527;51.986;5.842;2023-02-28T04:55:31;1.70;99.90
46766;DHT22;32527;51.986;5.842;2023-02-28T04:57:57;1.60;99.90
46766;DHT22;32527;51.986;5.842;2023-02-28T05:00:23;1.60;99.90
46766;DHT22;32527;51.986;5.842;2023-02-28T05:02:49;1.60;99.90
46766;DHT22;32527;51.986;5.842;2023-02-28T05:05:15;1.50;99.90
46766;DHT22;32527;51.986;5.842;2023-02-28T05:07:44;1.50;99.90
46766;DHT22;32527;51.986;5.842;2023-02-28T05:10:11;1.60;99.90
46766;DHT22;32527;51.986;5.842;2023-02-28T05:12:37;1.50;99.90
46766;DHT22;32527;51.986;5.842;2023-02-28T05:15:03;3.20;99.90
46766;DHT22;32527;51.986;5.842;2023-02-28T05:17:30;1.50;99.90
46766;DHT22;32527;51.986;5.842;2023-02-28T05:22:22;1.40;99.90
46766;DHT22;32527;51.986;5.842;2023-02-28T05:24:48;1.40;99.90
46766;DHT22;32527;51.986;5.842;2023-02-28T05:27:14;1.10;99.90
46766;DHT22;32527;51.986;5.842;2023-02-28T05:29:39;1.50;99.90
46766;DHT22;32527;51.986;5.842;2023-02-28T05:32:10;1.40;99.90
46766;DHT22;32527;51.986;5.842;2023-02-28T05:34:37;1.40;99.90
46766;DHT22;32527;51.986;5.842;2023-02-28T05:37:03;1.40;99.90
46766;DHT22;32527;51.986;5.842;2023-02-28T05:39:29;1.40;99.90
46766;DHT22;32527;51.986;5.842;2023-02-28T05:41:54;1.40;99.90
46766;DHT22;32527;51.986;5.842;2023-02-28T05:44:20;1.50;99.90
46766;DHT22;32527;51.986;5.842;2023-02-28T05:46:46;1.40;99.90
46766;DHT22;32527;51.986;5.842;2023-02-28T05:49:12;1.40;99.90
46766;DHT22;32527;51.986;5.842;2023-02-28T05:51:37;1.40;99.90
46766;DHT22;32527;51.986;5.842;2023-02-28T05:54:05;1.50;99.90
46766;DHT22;32527;51.986;5.842;2023-02-28T05:56:32;1.40;99.90
46766;DHT22;32527;51.986;5.842;2023-02-28T05:59:00;1.40;99.90
46766;DHT22;32527;51.986;5.842;2023-02-28T06:01:55;1.40;99.90
46766;DHT22;32527;51.986;5.842;2023-02-28T06:04:21;1.10;99.90
46766;DHT22;32527;51.986;5.842;2023-02-28T06:09:13;1.20;99.90
46766;DHT22;32527;51.986;5.842;2023-02-28T06:11:41;1.30;99.90
46766;DHT22;32527;51.986;5.842;2023-02-28T06:14:07;1.40;99.90
46766;DHT22;32527;51.986;5.842;2023-02-28T06:16:34;2.80;99.90
46766;DHT22;32527;51.986;5.842;2023-02-28T06:19:02;1.40;99.90
46766;DHT22;32527;51.986;5.842;2023-02-28T06:21:29;1.50;99.90
46766;DHT22;32527;51.986;5.842;2023-02-28T06:23:56;1.50;99.90
46766;DHT22;32527;51.986;5.842;2023-02-28T06:26:21;1.40;99.90
46766;DHT22;32527;51.986;5.842;2023-02-28T06:28:47;1.40;99.90
46766;DHT22;32527;51.986;5.842;2023-02-28T06:31:15;1.40;99.90
46766;DHT22;32527;51.986;5.842;2023-02-28T06:33:41;1.40;99.90
46766;DHT22;32527;51.986;5.842;2023-02-28T06:36:09;1.50;99.90
46766;DHT22;32527;51.986;5.842;2023-02-28T06:38:38;1.50;99.90
46766;DHT22;32527;51.986;5.842;2023-02-28T06:43:36;1.60;99.90
46766;DHT22;32527;51.986;5.842;2023-02-28T06:46:06;1.90;99.90
46766;DHT22;32527;51.986;5.842;2023-02-28T06:48:32;1.60;99.90
46766;DHT22;32527;51.986;5.842;2023-02-28T06:51:06;1.70;99.90
46766;DHT22;32527;51.986;5.842;2023-02-28T06:53:32;1.70;99.90
46766;DHT22;32527;51.986;5.842;2023-02-28T06:58:24;1.80;99.90
46766;DHT22;32527;51.986;5.842;2023-02-28T07:00:53;1.80;99.90
46766;DHT22;32527;51.986;5.842;2023-02-28T07:03:19;2.00;99.90
46766;DHT22;32527;51.986;5.842;2023-02-28T07:05:46;2.00;99.90
46766;DHT22;32527;51.986;5.842;2023-02-28T07:08:11;2.20;99.90
46766;DHT22;32527;51.986;5.842;2023-02-28T07:10:38;2.30;99.90
46766;DHT22;32527;51.986;5.842;2023-02-28T07:13:05;2.40;99.90
46766;DHT22;32527;51.986;5.842;2023-02-28T07:15:31;2.40;99.90
46766;DHT22;32527;51.986;5.842;2023-02-28T07:17:56;2.50;99.90
46766;DHT22;32527;51.986;5.842;2023-02-28T07:20:23;2.50;99.90
46766;DHT22;32527;51.986;5.842;2023-02-28T07:22:49;2.70;99.90
46766;DHT22;32527;51.986;5.842;2023-02-28T07:25:28;4.10;99.90
46766;DHT22;32527;51.986;5.842;2023-02-28T07:27:55;2.70;99.90
46766;DHT22;32527;51.986;5.842;2023-02-28T07:30:21;2.70;99.90
46766;DHT22;32527;51.986;5.842;2023-02-28T07:32:47;2.80;99.90
46766;DHT22;32527;51.986;5.842;2023-02-28T07:35:13;2.80;99.90
46766;DHT22;32527;51.986;5.842;2023-02-28T07:37:41;2.90;99.90
46766;DHT22;32527;51.986;5.842;2023-02-28T07:40:09;2.90;99.90
46766;DHT22;32527;51.986;5.842;2023-02-28T07:42:37;3.00;99.90
46766;DHT22;32527;51.986;5.842;2023-02-28T07:45:04;3.00;99.90
46766;DHT22;32527;51.986;5.842;2023-02-28T07:47:30;3.50;99.90
46766;DHT22;32527;51.986;5.842;2023-02-28T07:49:57;3.30;99.90
46766;DHT22;32527;51.986;5.842;2023-02-28T07:52:23;3.30;99.90
46766;DHT22;32527;51.986;5.842;2023-02-28T07:54:52;3.50;98.50
46766;DHT22;32527;51.986;5.842;2023-02-28T07:57:18;3.30;99.10
46766;DHT22;32527;51.986;5.842;2023-02-28T07:59:44;3.30;99.20
46766;DHT22;32527;51.986;5.842;2023-02-28T08:02:16;3.50;97.70
46766;DHT22;32527;51.986;5.842;2023-02-28T08:04:42;3.80;96.70
46766;DHT22;32527;51.986;5.842;2023-02-28T08:07:08;3.90;96.50
46766;DHT22;32527;51.986;5.842;2023-02-28T08:09:34;4.00;97.30
46766;DHT22;32527;51.986;5.842;2023-02-28T08:12:00;4.10;95.90
46766;DHT22;32527;51.986;5.842;2023-02-28T08:14:26;4.20;95.70
46766;DHT22;32527;51.986;5.842;2023-02-28T08:19:17;4.30;94.00
46766;DHT22;32527;51.986;5.842;2023-02-28T08:21:43;4.30;93.80
46766;DHT22;32527;51.986;5.842;2023-02-28T08:38:48;4.30;90.30
46766;DHT22;32527;51.986;5.842;2023-02-28T08:41:13;4.30;85.20
46766;DHT22;32527;51.986;5.842;2023-02-28T08:43:40;4.50;84.70
46766;DHT22;32527;51.986;5.842;2023-02-28T08:46:07;4.50;85.10
46766;DHT22;32527;51.986;5.842;2023-02-28T08:48:34;4.50;85.60
46766;DHT22;32527;51.986;5.842;2023-02-28T08:51:16;4.40;83.60
46766;DHT22;32527;51.986;5.842;2023-02-28T08:53:44;4.30;82.40
46766;DHT22;32527;51.986;5.842;2023-02-28T08:56:12;4.30;82.90
46766;DHT22;32527;51.986;5.842;2023-02-28T08:58:40;4.10;82.20
46766;DHT22;32527;51.986;5.842;2023-02-28T09:01:15;4.10;82.60
46766;DHT22;32527;51.986;5.842;2023-02-28T09:03:42;3.90;80.50
46766;DHT22;32527;51.986;5.842;2023-02-28T09:06:09;3.80;78.50
46766;DHT22;32527;51.986;5.842;2023-02-28T09:11:02;3.90;77.00
46766;DHT22;32527;51.986;5.842;2023-02-28T09:13:29;3.90;73.20
46766;DHT22;32527;51.986;5.842;2023-02-28T09:15:57;3.90;76.10
46766;DHT22;32527;51.986;5.842;2023-02-28T09:18:23;3.90;75.90
46766;DHT22;32527;51.986;5.842;2023-02-28T09:25:46;4.10;77.40
46766;DHT22;32527;51.986;5.842;2023-02-28T09:33:08;4.00;74.70
46766;DHT22;32527;51.986;5.842;2023-02-28T09:38:03;4.20;70.50
46766;DHT22;32527;51.986;5.842;2023-02-28T09:42:57;4.00;73.10
46766;DHT22;32527;51.986;5.842;2023-02-28T09:45:41;4.10;73.10
46766;DHT22;32527;51.986;5.842;2023-02-28T09:48:16;4.30;71.90
46766;DHT22;32527;51.986;5.842;2023-02-28T09:50:50;4.00;70.80
46766;DHT22;32527;51.986;5.842;2023-02-28T09:53:21;4.30;72.40
46766;DHT22;32527;51.986;5.842;2023-02-28T09:56:12;4.50;72.40
46766;DHT22;32527;51.986;5.842;2023-02-28T09:58:47;4.50;71.30
46766;DHT22;32527;51.986;5.842;2023-02-28T10:01:31;4.30;69.70
46766;DHT22;32527;51.986;5.842;2023-02-28T10:04:33;4.40;69.80
46766;DHT22;32527;51.986;5.842;2023-02-28T10:07:06;4.20;68.80
46766;DHT22;32527;51.986;5.842;2023-02-28T10:09:46;4.40;68.20
46766;DHT22;32527;51.986;5.842;2023-02-28T10:12:15;4.40;67.40
46766;DHT22;32527;51.986;5.842;2023-02-28T10:14:45;4.50;69.00
46766;DHT22;32527;51.986;5.842;2023-02-28T10:17:19;4.50;69.60
46766;DHT22;32527;51.986;5.842;2023-02-28T10:19:54;4.50;70.40
46766;DHT22;32527;51.986;5.842;2023-02-28T10:22:26;4.90;65.50
46766;DHT22;32527;51.986;5.842;2023-02-28T10:24:54;4.90;68.00
46766;DHT22;32527;51.986;5.842;2023-02-28T10:27:25;4.80;66.40
46766;DHT22;32527;51.986;5.842;2023-02-28T10:29:56;4.90;65.80
46766;DHT22;32527;51.986;5.842;2023-02-28T10:32:29;4.90;66.50
46766;DHT22;32527;51.986;5.842;2023-02-28T10:34:59;4.90;65.60
46766;DHT22;32527;51.986;5.842;2023-02-28T10:37:26;4.90;66.50
46766;DHT22;32527;51.986;5.842;2023-02-28T10:39:52;4.90;66.30
46766;DHT22;32527;51.986;5.842;2023-02-28T10:42:29;5.00;67.10
46766;DHT22;32527;51.986;5.842;2023-02-28T10:45:15;5.00;64.90
46766;DHT22;32527;51.986;5.842;2023-02-28T10:48:03;5.10;66.00
46766;DHT22;32527;51.986;5.842;2023-02-28T11:01:19;5.20;66.80
46766;DHT22;32527;51.986;5.842;2023-02-28T11:03:46;5.40;65.90
46766;DHT22;32527;51.986;5.842;2023-02-28T11:06:21;5.30;66.80
46766;DHT22;32527;51.986;5.842;2023-02-28T11:08:53;5.30;66.50
46766;DHT22;32527;51.986;5.842;2023-02-28T11:11:22;5.30;67.10
46766;DHT22;32527;51.986;5.842;2023-02-28T11:13:52;5.40;66.40
46766;DHT22;32527;51.986;5.842;2023-02-28T11:16:19;5.30;66.60
46766;DHT22;32527;51.986;5.842;2023-02-28T11:18:55;5.70;67.40
46766;DHT22;32527;51.986;5.842;2023-02-28T11:21:33;5.40;68.00
46766;DHT22;32527;51.986;5.842;2023-02-28T11:24:04;5.40;67.30
46766;DHT22;32527;51.986;5.842;2023-02-28T11:26:42;5.50;66.90
46766;DHT22;32527;51.986;5.842;2023-02-28T11:29:24;5.50;65.80
46766;DHT22;32527;51.986;5.842;2023-02-28T11:32:16;5.50;67.30
46766;DHT22;32527;51.986;5.842;2023-02-28T11:34:45;5.50;65.10
46766;DHT22;32527;51.986;5.842;2023-02-28T11:37:15;6.60;66.20
46766;DHT22;32527;51.986;5.842;2023-02-28T11:39:41;5.60;65.30
46766;DHT22;32527;51.986;5.842;2023-02-28T11:42:35;5.80;63.50
46766;DHT22;32527;51.986;5.842;2023-02-28T11:56:31;8.00;57.10
46766;DHT22;32527;51.986;5.842;2023-02-28T12:07:35;9.20;53.50
46766;DHT22;32527;51.986;5.842;2023-02-28T12:10:18;10.50;50.90
46766;DHT22;32527;51.986;5.842;2023-02-28T12:13:03;11.40;45.70
46766;DHT22;32527;51.986;5.842;2023-02-28T12:27:13;11.10;44.20
46766;DHT22;32527;51.986;5.842;2023-02-28T12:29:49;10.00;45.60
46766;DHT22;32527;51.986;5.842;2023-02-28T12:32:23;8.90;48.40
46766;DHT22;32527;51.986;5.842;2023-02-28T12:40:11;7.40;52.30
46766;DHT22;32527;51.986;5.842;2023-02-28T12:42:51;7.00;51.70
46766;DHT22;32527;51.986;5.842;2023-02-28T12:45:39;6.70;53.30
46766;DHT22;32527;51.986;5.842;2023-02-28T12:48:09;6.90;53.30
46766;DHT22;32527;51.986;5.842;2023-02-28T12:50:37;6.60;53.10
46766;DHT22;32527;51.986;5.842;2023-02-28T12:53:05;6.60;54.90
46766;DHT22;32527;51.986;5.842;2023-02-28T13:04:33;6.50;54.70
46766;DHT22;32527;51.986;5.842;2023-02-28T13:07:38;6.50;54.20
46766;DHT22;32527;51.986;5.842;2023-02-28T13:10:07;6.60;55.20
46766;DHT22;32527;51.986;5.842;2023-02-28T13:15:20;6.30;54.10
46766;DHT22;32527;51.986;5.842;2023-02-28T13:18:20;7.60;54.10
46766;DHT22;32527;51.986;5.842;2023-02-28T13:20:51;6.60;53.40
46766;DHT22;32527;51.986;5.842;2023-02-28T13:23:40;6.60;54.00
46766;DHT22;32527;51.986;5.842;2023-02-28T13:26:06;6.60;53.40
46766;DHT22;32527;51.986;5.842;2023-02-28T13:31:19;6.10;54.70
46766;DHT22;32527;51.986;5.842;2023-02-28T13:36:32;6.60;53.80
46766;DHT22;32527;51.986;5.842;2023-02-28T13:38:59;7.30;54.70
46766;DHT22;32527;51.986;5.842;2023-02-28T13:44:16;6.80;54.20
46766;DHT22;32527;51.986;5.842;2023-02-28T13:57:30;6.40;53.30
46766;DHT22;32527;51.986;5.842;2023-02-28T14:00:33;6.50;52.70
46766;DHT22;32527;51.986;5.842;2023-02-28T14:06:24;6.70;55.40
46766;DHT22;32527;51.986;5.842;2023-02-28T14:11:29;6.20;54.70
46766;DHT22;32527;51.986;5.842;2023-02-28T14:16:23;6.40;55.90
46766;DHT22;32527;51.986;5.842;2023-02-28T14:19:24;6.40;56.00
46766;DHT22;32527;51.986;5.842;2023-02-28T14:30:25;6.80;55.30
46766;DHT22;32527;51.986;5.842;2023-02-28T14:36:00;7.00;54.80
46766;DHT22;32527;51.986;5.842;2023-02-28T14:38:57;6.70;54.50
46766;DHT22;32527;51.986;5.842;2023-02-28T14:43:59;6.70;55.00
46766;DHT22;32527;51.986;5.842;2023-02-28T14:46:30;6.80;54.00
46766;DHT22;32527;51.986;5.842;2023-02-28T14:51:26;6.70;54.20
46766;DHT22;32527;51.986;5.842;2023-02-28T14:53:57;6.80;54.30
46766;DHT22;32527;51.986;5.842;2023-02-28T14:56:34;6.70;54.40
46766;DHT22;32527;51.986;5.842;2023-02-28T15:04:05;7.50;53.90
46766;DHT22;32527;51.986;5.842;2023-02-28T15:06:32;9.60;49.60
46766;DHT22;32527;51.986;5.842;2023-02-28T15:09:15;11.40;50.50
46766;DHT22;32527;51.986;5.842;2023-02-28T15:14:16;10.30;46.40
46766;DHT22;32527;51.986;5.842;2023-02-28T15:16:44;9.90;45.90
46766;DHT22;32527;51.986;5.842;2023-02-28T15:19:21;9.80;46.40
46766;DHT22;32527;51.986;5.842;2023-02-28T15:21:53;9.10;47.00
46766;DHT22;32527;51.986;5.842;2023-02-28T15:27:02;7.60;51.00
46766;DHT22;32527;51.986;5.842;2023-02-28T15:29:30;7.20;51.60
46766;DHT22;32527;51.986;5.842;2023-02-28T15:32:03;6.90;53.10
46766;DHT22;32527;51.986;5.842;2023-02-28T15:34:35;7.00;54.30
46766;DHT22;32527;51.986;5.842;2023-02-28T15:37:02;6.40;54.00
46766;DHT22;32527;51.986;5.842;2023-02-28T15:39:42;6.50;53.90
46766;DHT22;32527;51.986;5.842;2023-02-28T15:42:18;6.50;54.40
46766;DHT22;32527;51.986;5.842;2023-02-28T15:47:19;6.30;54.10
46766;DHT22;32527;51.986;5.842;2023-02-28T15:52:38;6.10;54.30
46766;DHT22;32527;51.986;5.842;2023-02-28T15:55:17;6.10;55.80
46766;DHT22;32527;51.986;5.842;2023-02-28T15:57:44;6.10;54.10
46766;DHT22;32527;51.986;5.842;2023-02-28T16:00:13;6.40;56.60
46766;DHT22;32527;51.986;5.842;2023-02-28T16:02:41;6.00;54.90
46766;DHT22;32527;51.986;5.842;2023-02-28T16:07:40;5.90;55.60
46766;DHT22;32527;51.986;5.842;2023-02-28T16:10:08;6.10;57.60
46766;DHT22;32527;51.986;5.842;2023-02-28T16:12:36;5.80;55.80
46766;DHT22;32527;51.986;5.842;2023-02-28T16:15:25;5.80;56.00
46766;DHT22;32527;51.986;5.842;2023-02-28T16:17:52;5.80;56.00
46766;DHT22;32527;51.986;5.842;2023-02-28T16:20:23;5.70;56.20
46766;DHT22;32527;51.986;5.842;2023-02-28T16:25:18;5.60;56.80
46766;DHT22;32527;51.986;5.842;2023-02-28T16:27:47;5.90;59.60
46766;DHT22;32527;51.986;5.842;2023-02-28T16:30:28;5.50;58.10
46766;DHT22;32527;51.986;5.842;2023-02-28T16:37:51;5.30;58.80
46766;DHT22;32527;51.986;5.842;2023-02-28T16:40:20;5.10;60.90
46766;DHT22;32527;51.986;5.842;2023-02-28T16:42:49;5.20;62.70
46766;DHT22;32527;51.986;5.842;2023-02-28T16:45:22;5.10;61.20
46766;DHT22;32527;51.986;5.842;2023-02-28T16:50:18;5.00;62.00
46766;DHT22;32527;51.986;5.842;2023-02-28T16:57:38;4.80;62.70
46766;DHT22;32527;51.986;5.842;2023-02-28T17:00:05;4.50;64.50
46766;DHT22;32527;51.986;5.842;2023-02-28T17:02:52;4.70;65.50
46766;DHT22;32527;51.986;5.842;2023-02-28T17:05:59;4.10;66.60
46766;DHT22;32527;51.986;5.842;2023-02-28T17:29:29;3.30;76.30
46766;DHT22;32527;51.986;5.842;2023-02-28T17:36:49;3.40;77.80
46766;DHT22;32527;51.986;5.842;2023-02-28T17:39:16;3.30;78.50
46766;DHT22;32527;51.986;5.842;2023-02-28T17:41:54;3.60;80.30
46766;DHT22;32527;51.986;5.842;2023-02-28T17:44:21;3.20;77.90
46766;DHT22;32527;51.986;5.842;2023-02-28T17:46:47;3.40;79.50
46766;DHT22;32527;51.986;5.842;2023-02-28T17:49:13;3.10;80.20
46766;DHT22;32527;51.986;5.842;2023-02-28T17:56:31;3.00;79.70
46766;DHT22;32527;51.986;5.842;2023-02-28T18:01:25;3.30;75.00
46766;DHT22;32527;51.986;5.842;2023-02-28T18:06:43;3.70;78.40
46766;DHT22;32527;51.986;5.842;2023-02-28T18:09:14;3.20;76.70
46766;DHT22;32527;51.986;5.842;2023-02-28T18:26:20;3.10;83.80
46766;DHT22;32527;51.986;5.842;2023-02-28T18:31:14;3.00;85.10
46766;DHT22;32527;51.986;5.842;2023-02-28T18:37:55;2.90;90.00
46766;DHT22;32527;51.986;5.842;2023-02-28T18:50:05;2.20;91.90
46766;DHT22;32527;51.986;5.842;2023-02-28T19:29:05;1.60;99.60
46766;DHT22;32527;51.986;5.842;2023-02-28T19:46:09;1.80;99.60
46766;DHT22;32527;51.986;5.842;2023-02-28T19:48:34;1.70;99.90
46766;DHT22;32527;51.986;5.842;2023-02-28T19:51:05;1.60;98.70
46766;DHT22;32527;51.986;5.842;2023-02-28T19:53:33;1.70;98.70
46766;DHT22;32527;51.986;5.842;2023-02-28T20:05:45;1.80;97.80
46766;DHT22;32527;51.986;5.842;2023-02-28T20:15:30;1.90;99.90
46766;DHT22;32527;51.986;5.842;2023-02-28T20:20:24;1.40;99.90
46766;DHT22;32527;51.986;5.842;2023-02-28T20:30:10;1.20;99.90
46766;DHT22;32527;51.986;5.842;2023-02-28T20:35:05;0.90;99.90
46766;DHT22;32527;51.986;5.842;2023-02-28T20:39:59;0.90;99.90
46766;DHT22;32527;51.986;5.842;2023-02-28T20:42:29;1.00;99.90
46766;DHT22;32527;51.986;5.842;2023-02-28T20:56:34;0.30;99.90
46766;DHT22;32527;51.986;5.842;2023-02-28T21:02:25;0.50;99.90
46766;DHT22;32527;51.986;5.842;2023-02-28T21:05:06;0.20;99.90
46766;DHT22;32527;51.986;5.842;2023-02-28T21:15:02;0.10;99.90
46766;DHT22;32527;51.986;5.842;2023-02-28T21:20:01;0.00;99.90
46766;DHT22;32527;51.986;5.842;2023-02-28T21:24:59;0.10;99.90
46766;DHT22;32527;51.986;5.842;2023-02-28T21:29:59;0.10;99.90
46766;DHT22;32527;51.986;5.842;2023-02-28T21:32:40;0.10;99.90
46766;DHT22;32527;51.986;5.842;2023-02-28T21:36:07;-0.20;99.90
46766;DHT22;32527;51.986;5.842;2023-02-28T21:38:34;0.00;99.90
46766;DHT22;32527;51.986;5.842;2023-02-28T21:44:56;-0.10;99.90
46766;DHT22;32527;51.986;5.842;2023-02-28T21:48:03;-0.20;99.90
46766;DHT22;32527;51.986;5.842;2023-02-28T21:59:23;-0.30;99.90
46766;DHT22;32527;51.986;5.842;2023-02-28T22:03:07;-0.30;99.90
46766;DHT22;32527;51.986;5.842;2023-02-28T22:12:51;-0.20;99.90
46766;DHT22;32527;51.986;5.842;2023-02-28T22:20:10;-0.70;99.90
46766;DHT22;32527;51.986;5.842;2023-02-28T22:25:03;-0.20;99.90
46766;DHT22;32527;51.986;5.842;2023-02-28T22:32:47;-0.50;99.90
46766;DHT22;32527;51.986;5.842;2023-02-28T22:42:48;-0.50;99.90
46766;DHT22;32527;51.986;5.842;2023-02-28T22:46:18;-0.60;99.90
46766;DHT22;32527;51.986;5.842;2023-02-28T22:51:15;-0.50;99.90
46766;DHT22;32527;51.986;5.842;2023-02-28T23:01:24;0.20;99.90
46766;DHT22;32527;51.986;5.842;2023-02-28T23:11:22;-0.60;99.90
46766;DHT22;32527;51.986;5.842;2023-02-28T23:18:49;-0.90;99.90
46766;DHT22;32527;51.986;5.842;2023-02-28T23:21:41;-0.70;99.90
46766;DHT22;32527;51.986;5.842;2023-02-28T23:25:12;-0.70;99.90
46766;DHT22;32527;51.986;5.842;2023-02-28T23:30:04;-0.40;99.90
46766;DHT22;32527;51.986;5.842;2023-02-28T23:34:58;-0.80;99.90
